Time;durP1;ratioP1;P1;durP2;ratioP2;P2;SDS_P1;SDS_P2;PMS_P1;PMS_P2;Temp;Humidity;BMP_temperature;BMP_pressure;BME280_temperature;BME280_humidity;BME280_pressure;Samples;Min_cycle;Max_cycle;Signal;HPM_P1;HPM_P2
2022/10/25 00:01:17;;;;;;;10.43;2.30;;;11.80;99.90;;;12.59;100.00;98110.97;4983859;28;20569;-88
2022/10/25 00:03:47;;;;;;;15.90;3.10;;;11.80;99.90;;;12.62;100.00;98123.66;4980369;28;20457;-89
2022/10/25 00:06:17;;;;;;;10.10;1.70;;;11.90;99.90;;;12.60;100.00;98116.00;4983069;28;20475;-88
2022/10/25 00:08:46;;;;;;;8.73;1.40;;;11.90;99.90;;;12.61;100.00;98111.56;4980928;28;20510;-89
2022/10/25 00:11:22;;;;;;;4.10;1.93;;;11.90;99.90;;;12.60;100.00;98113.38;4983585;28;20563;-86
2022/10/25 00:13:54;;;;;;;7.07;1.40;;;11.80;99.90;;;12.60;100.00;98116.00;4982133;28;20472;-88
2022/10/25 00:16:26;;;;;;;10.80;4.10;;;11.80;99.90;;;12.61;100.00;98122.84;4984642;28;20558;-87
2022/10/25 00:18:55;;;;;;;10.87;1.70;;;11.80;99.90;;;12.60;100.00;98120.41;4984067;28;20562;-88
2022/10/25 00:21:26;;;;;;;8.13;1.57;;;11.80;99.90;;;12.61;100.00;98122.84;4987084;28;20569;-87
2022/10/25 00:23:55;;;;;;;9.43;3.00;;;11.90;99.90;;;12.62;100.00;98128.91;4991399;28;20543;-88
2022/10/25 00:26:25;;;;;;;14.10;2.27;;;11.90;99.90;;;12.64;100.00;98116.41;4988422;28;20953;-87
2022/10/25 00:28:55;;;;;;;4.47;1.67;;;11.90;99.90;;;12.64;100.00;98119.03;4986647;28;20475;-89
2022/10/25 00:31:25;;;;;;;6.50;1.83;;;11.80;99.90;;;12.65;100.00;98123.28;4983571;28;20571;-87
2022/10/25 00:33:54;;;;;;;9.90;1.83;;;11.80;99.90;;;12.66;100.00;98122.28;4989568;28;20487;-87
2022/10/25 00:36:27;;;;;;;8.00;1.77;;;11.90;99.90;;;12.66;100.00;98130.16;4987684;28;20570;-88
2022/10/25 00:39:01;;;;;;;9.63;2.23;;;11.90;99.90;;;12.69;100.00;98126.31;4987621;28;20471;-88
2022/10/25 00:41:33;;;;;;;8.70;1.80;;;11.90;99.90;;;12.71;100.00;98130.34;4984422;28;20832;-88
2022/10/25 00:44:54;;;;;;;19.97;1.47;;;11.90;99.90;;;12.73;100.00;98127.53;4985759;28;20543;-88
2022/10/25 00:47:44;;;;;;;15.47;1.80;;;12.00;99.90;;;12.76;100.00;98137.63;4929020;29;20561;-88
2022/10/25 00:50:29;;;;;;;2.07;1.40;;;12.00;99.90;;;12.75;100.00;98142.06;4929330;29;21002;-88
2022/10/25 00:53:08;;;;;;;4.57;1.63;;;12.00;99.90;;;12.79;100.00;98139.84;4971025;28;21026;-90
2022/10/25 00:55:44;;;;;;;3.10;1.30;;;12.10;99.90;;;12.80;100.00;98147.53;4985598;28;20552;-88
2022/10/25 00:58:20;;;;;;;7.30;1.77;;;12.00;99.90;;;12.82;100.00;98149.94;4985525;28;20455;-89
2022/10/25 01:00:49;;;;;;;10.43;2.47;;;12.10;99.90;;;12.82;100.00;98148.13;4986938;28;20467;-88
2022/10/25 01:03:22;;;;;;;10.80;1.60;;;12.20;99.90;;;12.82;100.00;98150.75;4985143;28;20475;-88
2022/10/25 01:05:53;;;;;;;9.10;1.70;;;12.20;99.90;;;12.84;100.00;98142.72;4987094;28;20496;-88
2022/10/25 01:08:25;;;;;;;2.30;1.43;;;12.10;99.90;;;12.86;100.00;98140.69;4986327;28;20472;-87
2022/10/25 01:10:53;;;;;;;16.90;1.83;;;12.10;99.90;;;12.87;100.00;98143.13;4983372;28;21254;-87
2022/10/25 01:13:22;;;;;;;5.60;1.60;;;12.20;99.90;;;12.90;100.00;98149.78;4985796;28;20934;-88
2022/10/25 01:16:06;;;;;;;5.97;1.60;;;12.30;99.90;;;12.90;100.00;98147.97;4987450;28;20819;-88
2022/10/25 01:18:46;;;;;;;10.03;1.50;;;12.30;99.90;;;12.92;100.00;98150.38;4988977;28;20559;-87
2022/10/25 01:21:44;;;;;;;6.67;1.57;;;12.30;99.90;;;12.94;100.00;98143.13;4988428;28;20470;-88
2022/10/25 01:25:06;;;;;;;3.47;1.30;;;12.30;99.90;;;12.96;100.00;98141.91;4989296;28;20585;-88
2022/10/25 01:28:06;;;;;;;3.83;1.30;;;12.30;99.90;;;12.98;100.00;98144.34;4977932;28;20469;-88
2022/10/25 01:31:16;;;;;;;3.93;1.40;;;12.30;99.90;;;13.01;100.00;98136.06;4985390;28;20452;-88
2022/10/25 01:33:57;;;;;;;6.23;1.60;;;12.40;99.90;;;13.03;100.00;98144.53;4985009;28;20495;-88
2022/10/25 01:36:42;;;;;;;6.73;1.80;;;12.40;99.90;;;13.04;100.00;98141.72;4986468;28;20477;-88
2022/10/25 01:39:17;;;;;;;6.53;1.67;;;12.40;99.90;;;13.07;100.00;98145.75;4987563;28;20491;-87
2022/10/25 01:41:59;;;;;;;4.10;1.43;;;12.40;99.90;;;13.09;100.00;98141.13;4987089;28;20463;-88
2022/10/25 01:44:59;;;;;;;8.50;2.10;;;12.40;99.90;;;13.12;100.00;98143.38;4987222;28;20575;-88
2022/10/25 01:47:37;;;;;;;2.87;1.37;;;12.50;99.90;;;13.12;100.00;98146.00;4984503;28;20466;-88
2022/10/25 01:50:13;;;;;;;10.70;1.93;;;12.50;99.90;;;13.14;100.00;98145.81;4984798;28;20463;-88
2022/10/25 01:52:42;;;;;;;4.47;1.80;;;12.50;99.90;;;13.14;100.00;98145.81;4984510;28;20569;-87
2022/10/25 01:55:15;;;;;;;4.60;1.80;;;12.50;99.90;;;13.17;100.00;98142.78;4986141;28;20542;-88
2022/10/25 01:58:11;;;;;;;10.20;1.43;;;12.50;99.90;;;13.19;100.00;98143.41;4984464;28;20513;-87
2022/10/25 02:00:54;;;;;;;2.83;1.50;;;12.60;99.90;;;13.18;100.00;98142.59;4983845;28;20472;-88
2022/10/25 02:03:35;;;;;;;6.30;1.90;;;12.60;99.90;;;13.19;100.00;98141.56;4983958;28;21118;-87
2022/10/25 02:06:29;;;;;;;6.90;1.83;;;12.60;99.90;;;13.23;100.00;98147.22;4984151;28;20526;-88
2022/10/25 02:09:06;;;;;;;6.13;1.20;;;12.50;99.90;;;13.23;100.00;98148.03;4983893;28;20542;-88
2022/10/25 02:11:36;;;;;;;7.77;1.70;;;12.60;99.90;;;13.24;100.00;98139.16;4986544;28;20574;-86
2022/10/25 02:14:23;;;;;;;9.57;1.87;;;12.60;99.90;;;13.26;100.00;98150.25;4982628;28;20595;-88
2022/10/25 02:16:59;;;;;;;7.87;1.57;;;12.60;99.90;;;13.27;100.00;98151.88;4983171;28;20829;-87
2022/10/25 02:19:34;;;;;;;3.87;1.50;;;12.60;99.90;;;13.28;100.00;98145.63;4987245;28;20465;-87
2022/10/25 02:22:07;;;;;;;7.90;1.83;;;12.60;99.90;;;13.30;100.00;98145.41;4983427;28;20479;-88
2022/10/25 02:24:38;;;;;;;6.83;1.60;;;12.70;99.90;;;13.31;100.00;98144.41;4981776;28;20565;-88
2022/10/25 02:27:12;;;;;;;8.20;1.43;;;12.70;99.90;;;13.33;100.00;98148.44;4985948;28;20448;-88
2022/10/25 02:29:43;;;;;;;8.40;1.43;;;12.70;99.90;;;13.34;100.00;98139.56;4985576;28;20472;-87
2022/10/25 02:32:11;;;;;;;13.47;1.40;;;12.70;99.90;;;13.34;100.00;98139.56;4981700;28;20479;-88
2022/10/25 02:34:42;;;;;;;4.80;1.80;;;12.70;99.90;;;13.37;100.00;98141.78;4984006;28;20520;-89
2022/10/25 02:37:11;;;;;;;5.63;2.03;;;12.70;99.90;;;13.38;100.00;98140.75;4983235;28;20555;-87
2022/10/25 02:39:40;;;;;;;7.73;1.57;;;12.80;99.90;;;13.39;100.00;98145.03;4985874;28;20487;-88
2022/10/25 02:42:09;;;;;;;5.17;1.90;;;12.80;99.90;;;13.39;100.00;98131.88;4983605;28;20448;-88
2022/10/25 02:44:38;;;;;;;8.23;1.90;;;12.80;99.90;;;13.40;100.00;98136.09;4982417;28;20567;-87
2022/10/25 02:47:08;;;;;;;4.67;1.63;;;12.80;99.90;;;13.42;100.00;98143.78;4984720;28;20490;-88
2022/10/25 02:49:38;;;;;;;4.37;1.70;;;12.80;99.90;;;13.44;100.00;98142.56;4983090;28;20570;-88
2022/10/25 02:52:09;;;;;;;8.07;1.93;;;12.80;99.90;;;13.46;100.00;98137.13;4981905;28;20495;-88
2022/10/25 02:54:38;;;;;;;6.80;1.73;;;12.90;99.90;;;13.47;100.00;98136.91;4981738;28;20678;-86
2022/10/25 02:57:07;;;;;;;9.30;2.00;;;12.90;99.90;;;13.47;100.00;98139.53;4983916;28;20482;-87
2022/10/25 02:59:36;;;;;;;11.03;1.67;;;12.90;99.90;;;13.47;100.00;98139.53;4981574;28;20467;-87
2022/10/25 03:02:05;;;;;;;8.60;2.90;;;12.90;99.90;;;13.47;100.00;98138.72;4981470;28;21092;-88
2022/10/25 03:04:34;;;;;;;4.23;1.47;;;12.90;99.90;;;13.49;100.00;98132.28;4981384;28;20555;-88
2022/10/25 03:07:03;;;;;;;3.30;1.40;;;12.90;99.90;;;13.51;100.00;98137.31;4982749;28;20568;-88
2022/10/25 03:09:33;;;;;;;10.40;1.73;;;12.90;99.90;;;13.50;100.00;98133.88;4982304;28;20583;-87
2022/10/25 03:12:02;;;;;;;8.83;2.03;;;12.90;99.90;;;13.53;100.00;98137.94;4983474;28;20594;-80
2022/10/25 03:14:30;;;;;;;12.03;2.90;;;12.90;99.90;;;13.53;100.00;98133.50;4983462;28;20499;-87
2022/10/25 03:16:59;;;;;;;8.73;2.23;;;13.00;99.90;;;13.54;100.00;98132.47;4985086;28;20467;-87
2022/10/25 03:19:28;;;;;;;5.07;1.63;;;13.00;99.90;;;13.52;100.00;98137.13;4983844;28;20449;-87
2022/10/25 03:21:57;;;;;;;5.80;2.63;;;13.00;99.90;;;13.53;100.00;98135.31;4983258;28;20457;-86
2022/10/25 03:24:26;;;;;;;4.63;1.70;;;13.00;99.90;;;13.52;100.00;98134.50;4982650;28;20471;-85
2022/10/25 03:26:56;;;;;;;5.83;1.80;;;12.90;99.90;;;13.52;100.00;98142.38;4981355;28;20472;-81
2022/10/25 03:29:24;;;;;;;18.43;1.67;;;12.90;99.90;;;13.53;100.00;98138.75;4981509;28;21131;-80
2022/10/25 03:31:53;;;;;;;4.30;1.20;;;12.90;99.90;;;13.52;100.00;98142.38;4981708;28;20475;-86
2022/10/25 03:34:22;;;;;;;8.90;1.77;;;12.90;99.90;;;13.51;100.00;98146.00;4981869;28;20503;-88
2022/10/25 03:36:51;;;;;;;8.93;1.90;;;12.90;99.90;;;13.52;100.00;98146.81;4981546;28;20543;-87
2022/10/25 03:39:19;;;;;;;13.43;1.90;;;12.90;99.90;;;13.52;100.00;98144.19;4985417;28;20530;-87
2022/10/25 03:41:50;;;;;;;6.70;2.10;;;12.90;99.90;;;13.53;100.00;98143.19;4980826;28;20507;-87
2022/10/25 03:44:21;;;;;;;13.43;1.63;;;12.90;99.90;;;13.52;100.00;98147.63;4982427;28;21025;-86
2022/10/25 03:46:50;;;;;;;9.07;1.97;;;12.90;99.90;;;13.53;100.00;98153.69;4978448;28;20515;-87
2022/10/25 03:49:19;;;;;;;2.37;1.27;;;12.90;99.90;;;13.51;100.00;98148.63;4982739;28;20479;-86
2022/10/25 03:51:48;;;;;;;26.53;12.03;;;12.90;99.90;;;13.50;100.00;98144.38;4981439;28;20472;-79
2022/10/25 03:54:23;;;;;;;25.67;13.30;;;12.80;99.90;;;13.50;100.00;98148.84;4985786;28;20506;-88
2022/10/25 03:56:56;;;;;;;8.70;3.67;;;12.80;99.90;;;13.51;100.00;98148.63;4985269;28;20518;-85
2022/10/25 03:59:29;;;;;;;4.17;2.20;;;12.90;99.90;;;13.53;100.00;98154.53;4985472;28;20451;-84
2022/10/25 04:01:57;;;;;;;7.80;1.63;;;12.90;99.90;;;13.51;100.00;98160.97;4985240;28;20507;-86
2022/10/25 04:04:26;;;;;;;14.40;2.30;;;12.80;99.90;;;13.52;100.00;98159.97;4987311;28;20459;-85
2022/10/25 04:06:54;;;;;;;7.80;1.70;;;12.80;99.90;;;13.52;100.00;98162.59;4987437;28;20470;-85
2022/10/25 04:09:24;;;;;;;7.10;1.90;;;12.80;99.90;;;13.53;100.00;98158.97;4987198;28;20460;-85
2022/10/25 04:11:52;;;;;;;3.40;1.60;;;12.80;99.90;;;13.51;100.00;98161.78;4985151;28;20496;-85
2022/10/25 04:14:22;;;;;;;16.27;1.60;;;12.70;99.90;;;13.53;100.00;98159.78;4985347;28;20498;-85
2022/10/25 04:16:53;;;;;;;13.50;2.23;;;12.80;99.90;;;13.54;100.00;98160.56;4987100;28;20538;-85
2022/10/25 04:19:22;;;;;;;4.20;1.93;;;12.90;99.90;;;13.53;100.00;98161.59;4985302;28;20445;-86
2022/10/25 04:21:52;;;;;;;6.13;1.80;;;12.90;99.90;;;13.53;100.00;98161.59;4983969;28;20950;-86
2022/10/25 04:24:21;;;;;;;37.00;13.97;;;12.80;99.90;;;13.53;100.00;98165.03;4985852;28;20464;-83
2022/10/25 04:26:51;;;;;;;20.23;6.30;;;12.90;99.90;;;13.53;100.00;98164.22;4984701;28;20464;-87
2022/10/25 04:29:19;;;;;;;7.13;2.00;;;12.80;99.90;;;13.52;100.00;98166.03;4985187;28;20558;-88
2022/10/25 04:31:48;;;;;;;12.40;2.03;;;12.80;99.90;;;13.52;100.00;98158.16;4984955;28;20828;-87
2022/10/25 04:34:18;;;;;;;10.03;2.10;;;12.90;99.90;;;13.50;100.00;98165.41;4985351;28;20503;-89
2022/10/25 04:36:46;;;;;;;6.97;1.70;;;12.80;99.90;;;13.51;100.00;98164.41;4986550;28;20451;-91
2022/10/25 04:39:15;;;;;;;6.00;1.90;;;12.80;99.90;;;13.51;100.00;98167.03;4990013;28;20469;-90
2022/10/25 04:41:44;;;;;;;14.33;2.23;;;12.80;99.90;;;13.52;100.00;98173.91;4990843;28;20456;-90
2022/10/25 04:44:13;;;;;;;15.43;3.20;;;12.80;99.90;;;13.52;100.00;98179.16;4992232;28;20440;-91
2022/10/25 04:46:42;;;;;;;6.63;2.73;;;12.80;99.90;;;13.53;100.00;98174.72;4995491;28;20487;-90
2022/10/25 04:49:18;;;;;;;13.20;3.20;;;12.80;99.90;;;13.54;100.00;98177.13;4991525;28;20479;-90
2022/10/25 04:51:48;;;;;;;13.93;2.67;;;12.80;99.90;;;13.55;100.00;98180.56;4987696;28;20459;-90
2022/10/25 04:54:17;;;;;;;10.53;2.93;;;12.90;99.90;;;13.56;100.00;98180.38;4990946;28;20484;-90
2022/10/25 04:56:46;;;;;;;7.73;2.37;;;12.80;99.90;;;13.56;100.00;98182.19;4991914;28;20809;-90
2022/10/25 04:59:15;;;;;;;10.67;2.23;;;12.80;99.90;;;13.57;100.00;98187.22;4989058;28;20506;-90
2022/10/25 05:01:43;;;;;;;4.77;2.40;;;12.90;99.90;;;13.57;100.00;98179.34;4993509;28;20554;-90
2022/10/25 05:04:13;;;;;;;15.83;2.77;;;12.90;99.90;;;13.56;100.00;98177.75;4995719;28;20476;-90
2022/10/25 05:06:43;;;;;;;14.50;4.03;;;12.90;99.90;;;13.58;100.00;98190.69;4992886;28;20444;-90
2022/10/25 05:09:12;;;;;;;8.43;1.77;;;12.90;99.90;;;13.58;100.00;98178.34;4988869;28;20567;-90
2022/10/25 05:11:44;;;;;;;9.13;1.90;;;12.90;99.90;;;13.60;100.00;98180.78;4988399;28;20448;-91
2022/10/25 05:14:14;;;;;;;6.90;2.20;;;13.00;99.90;;;13.59;100.00;98182.59;4984839;28;20590;-86
2022/10/25 05:16:42;;;;;;;5.00;2.00;;;13.00;99.90;;;13.58;100.00;98183.59;4987986;28;20460;-90
2022/10/25 05:19:12;;;;;;;5.60;2.07;;;13.00;99.90;;;13.60;100.00;98180.78;4997420;28;20812;-90
2022/10/25 05:21:41;;;;;;;11.27;2.17;;;13.00;99.90;;;13.60;100.00;98188.66;4990417;28;20542;-90
2022/10/25 05:24:12;;;;;;;5.03;1.67;;;13.00;99.90;;;13.58;100.00;98194.13;4990822;28;20462;-90
2022/10/25 05:26:40;;;;;;;18.63;2.43;;;13.00;99.90;;;13.60;100.00;98196.56;4990070;28;21099;-90
2022/10/25 05:29:12;;;;;;;9.93;1.90;;;13.00;99.90;;;13.60;100.00;98201.81;4987690;28;20468;-89
2022/10/25 05:31:42;;;;;;;4.60;1.70;;;12.90;99.90;;;13.59;100.00;98202.81;4989095;28;20454;-90
2022/10/25 05:34:11;;;;;;;12.50;1.90;;;12.90;99.90;;;13.59;100.00;98206.25;4991779;28;20476;-91
2022/10/25 05:36:39;;;;;;;12.47;1.83;;;13.00;99.90;;;13.58;100.00;98202.00;4992278;28;20491;-90
2022/10/25 05:39:10;;;;;;;8.20;2.20;;;13.00;99.90;;;13.58;100.00;98204.63;4996296;28;20575;-89
2022/10/25 05:41:40;;;;;;;9.10;1.90;;;13.00;99.90;;;13.58;100.00;98206.44;4992018;28;20456;-89
2022/10/25 05:44:09;;;;;;;13.57;2.20;;;13.00;99.90;;;13.59;100.00;98206.25;4994038;28;20448;-90
2022/10/25 05:46:39;;;;;;;6.60;1.60;;;13.00;99.90;;;13.61;100.00;98214.72;4990682;28;20452;-89
2022/10/25 05:49:07;;;;;;;11.83;1.90;;;12.90;99.90;;;13.60;100.00;98221.00;4992566;28;20922;-89
2022/10/25 05:51:37;;;;;;;11.70;1.90;;;13.00;99.90;;;13.62;100.00;98215.53;4994024;28;20466;-89
2022/10/25 05:54:10;;;;;;;7.23;2.10;;;12.90;99.90;;;13.63;100.00;98219.78;4988897;28;20546;-91
2022/10/25 05:56:40;;;;;;;12.07;2.20;;;12.90;99.90;;;13.64;100.00;98223.25;4984975;28;20579;-89
2022/10/25 05:59:11;;;;;;;8.43;2.07;;;13.00;99.90;;;13.63;100.00;98224.25;4988057;28;20506;-89
2022/10/25 06:01:42;;;;;;;5.23;2.07;;;12.90;99.90;;;13.64;100.00;98233.75;4985798;28;20504;-90
2022/10/25 06:04:13;;;;;;;7.40;2.13;;;13.00;99.90;;;13.64;100.00;98231.13;4986290;28;20459;-90
2022/10/25 06:06:44;;;;;;;11.70;2.73;;;13.00;99.90;;;13.64;100.00;98231.13;4991094;28;20494;-91
2022/10/25 06:09:14;;;;;;;4.50;2.10;;;13.00;99.90;;;13.63;100.00;98226.88;4990537;28;20464;-89
2022/10/25 06:11:44;;;;;;;9.93;2.60;;;13.00;99.90;;;13.64;100.00;98236.38;4990739;28;20963;-89
2022/10/25 06:14:14;;;;;;;6.67;2.40;;;13.00;99.90;;;13.63;100.00;98237.38;4989043;28;20519;-87
2022/10/25 06:16:42;;;;;;;7.20;2.30;;;13.00;99.90;;;13.65;100.00;98237.97;4988866;28;20602;-89
2022/10/25 06:19:11;;;;;;;7.43;2.80;;;13.00;99.90;;;13.64;100.00;98236.38;4989151;28;20468;-90
2022/10/25 06:21:40;;;;;;;10.70;2.10;;;13.00;99.90;;;13.60;100.00;98239.41;4989113;28;20551;-89
2022/10/25 06:24:09;;;;;;;6.73;2.00;;;12.90;99.90;;;13.63;100.00;98243.44;4987823;28;21110;-90
2022/10/25 06:26:39;;;;;;;6.00;1.93;;;13.00;99.90;;;13.61;100.00;98242.81;4987012;28;20496;-90
2022/10/25 06:29:10;;;;;;;6.17;2.30;;;12.90;99.90;;;13.60;100.00;98244.66;4988733;28;20463;-90
2022/10/25 06:31:43;;;;;;;7.80;2.67;;;12.90;99.90;;;13.62;100.00;98241.81;4985501;28;20449;-90
2022/10/25 06:34:12;;;;;;;7.27;1.90;;;13.00;99.90;;;13.63;100.00;98247.88;4989106;28;20635;-90
2022/10/25 06:36:41;;;;;;;9.60;2.47;;;12.90;99.90;;;13.64;100.00;98249.50;4988553;28;20488;-90
2022/10/25 06:39:11;;;;;;;9.63;2.57;;;13.00;99.90;;;13.65;100.00;98259.00;4989482;28;20461;-90
2022/10/25 06:41:40;;;;;;;15.30;3.10;;;13.00;99.90;;;13.65;100.00;98259.81;4987830;28;21029;-90
2022/10/25 06:44:10;;;;;;;6.63;2.33;;;13.00;99.90;;;13.64;100.00;98273.94;4986576;28;20459;-90
2022/10/25 06:46:41;;;;;;;14.07;2.77;;;13.00;99.90;;;13.66;100.00;98268.50;4988832;28;20489;-89
2022/10/25 06:49:30;;;;;;;4.17;2.10;;;12.90;99.90;;;13.67;100.00;98267.50;4985391;28;20441;-90
2022/10/25 06:52:00;;;;;;;5.73;2.10;;;13.00;99.90;;;13.68;100.00;98271.72;4985124;28;20539;-90
2022/10/25 06:54:29;;;;;;;5.97;1.90;;;13.00;99.90;;;13.69;100.00;98274.16;4985762;28;20464;-90
2022/10/25 06:56:59;;;;;;;4.33;2.00;;;13.10;99.90;;;13.71;100.00;98273.97;4987117;28;21020;-90
2022/10/25 06:59:29;;;;;;;9.10;2.13;;;13.20;99.90;;;13.69;100.00;98279.44;4986849;28;20514;-89
2022/10/25 07:01:58;;;;;;;7.30;3.23;;;13.20;99.90;;;13.71;100.00;98276.59;4992899;28;20444;-88
2022/10/25 07:04:31;;;;;;;7.20;2.30;;;13.20;99.90;;;13.71;100.00;98284.50;4985152;28;20452;-90
2022/10/25 07:07:00;;;;;;;11.30;3.20;;;13.10;99.90;;;13.72;100.00;98291.34;4985445;28;20996;-90
2022/10/25 07:09:29;;;;;;;20.60;3.77;;;13.20;99.90;;;13.72;100.00;98293.97;4984304;28;20456;-89
2022/10/25 07:11:58;;;;;;;3.10;1.90;;;13.10;99.90;;;13.75;100.00;98290.94;4989192;28;20463;-90
2022/10/25 07:14:28;;;;;;;7.20;1.97;;;13.10;99.90;;;13.75;100.00;98294.38;4986680;28;20457;-90
2022/10/25 07:16:58;;;;;;;10.03;2.07;;;13.10;99.90;;;13.77;100.00;98302.91;4985320;28;20520;-90
2022/10/25 07:19:27;;;;;;;8.50;2.60;;;13.10;99.90;;;13.79;100.00;98300.88;4987838;28;20530;-89
2022/10/25 07:21:56;;;;;;;9.87;5.37;;;13.10;99.90;;;13.80;100.00;98301.69;4985245;28;20477;-90
2022/10/25 07:24:25;;;;;;;9.67;2.60;;;13.10;99.90;;;13.81;100.00;98309.38;4985825;28;20447;-91
2022/10/25 07:26:54;;;;;;;2.83;1.80;;;13.10;99.90;;;13.81;100.00;98298.88;4988275;28;20555;-90
2022/10/25 07:29:23;;;;;;;5.73;1.93;;;13.10;99.90;;;13.83;100.00;98306.53;4991314;28;20471;-89
2022/10/25 07:31:53;;;;;;;8.37;1.37;;;13.20;99.90;;;13.84;100.00;98305.53;4991841;28;21138;-89
2022/10/25 07:34:22;;;;;;;4.80;1.70;;;13.20;99.90;;;13.84;100.00;98300.28;4992435;28;20531;-90
2022/10/25 07:36:51;;;;;;;4.17;1.33;;;13.30;99.90;;;13.81;100.00;98300.69;4995329;28;20563;-90
2022/10/25 07:39:19;;;;;;;6.50;2.30;;;13.20;99.90;;;13.81;100.00;98309.38;4996324;28;20456;-90
2022/10/25 07:41:49;;;;;;;3.07;1.53;;;13.20;99.90;;;13.84;100.00;98313.41;4991707;28;20452;-90
2022/10/25 07:44:19;;;;;;;5.80;1.77;;;13.30;99.90;;;13.81;100.00;98308.56;4995543;28;20934;-90
2022/10/25 07:46:54;;;;;;;7.13;2.00;;;13.20;99.90;;;13.88;100.00;98309.38;4992399;28;20565;-89
2022/10/25 07:49:23;;;;;;;5.80;1.70;;;13.30;99.90;;;13.88;100.00;98304.13;4992574;28;20460;-90
2022/10/25 07:51:52;;;;;;;7.67;1.60;;;13.30;99.90;;;13.90;100.00;98317.84;4988985;28;20563;-90
2022/10/25 07:54:22;;;;;;;2.53;1.67;;;13.30;99.90;;;13.89;100.00;98327.56;4992827;28;20807;-91
2022/10/25 07:56:51;;;;;;;12.20;1.73;;;13.30;99.90;;;13.90;100.00;98323.94;4992779;28;20498;-90
2022/10/25 07:59:20;;;;;;;3.87;1.30;;;13.30;99.90;;;13.90;100.00;98323.13;4991426;28;21123;-90
2022/10/25 08:01:49;;;;;;;9.17;2.33;;;13.40;99.90;;;13.86;100.00;98333.22;4988355;28;20451;-90
2022/10/25 08:04:20;;;;;;;5.73;1.50;;;13.30;99.90;;;13.90;100.00;98325.75;4994989;28;20450;-90
2022/10/25 08:06:48;;;;;;;9.47;1.87;;;13.40;99.90;;;13.95;100.00;98323.34;4991979;28;20471;-90
2022/10/25 08:09:17;;;;;;;5.40;1.63;;;13.40;99.90;;;13.98;100.00;98321.13;4997252;28;20489;-90
2022/10/25 08:12:07;;;;;;;2.90;1.47;;;13.50;99.90;;;14.00;100.00;98321.72;4992403;28;20435;-90
2022/10/25 08:14:36;;;;;;;8.50;1.90;;;13.40;99.90;;;14.03;100.00;98325.75;4992110;28;20467;-89
2022/10/25 08:17:10;;;;;;;5.23;2.00;;;13.50;99.90;;;14.01;100.00;98327.78;4991603;28;20533;-89
2022/10/25 08:19:41;;;;;;;4.70;1.67;;;13.40;99.90;;;14.04;100.00;98325.56;4992086;28;20568;-90
2022/10/25 08:22:15;;;;;;;3.70;1.40;;;13.40;99.90;;;14.06;100.00;98333.22;4993750;28;20466;-89
2022/10/25 08:24:44;;;;;;;14.40;1.70;;;13.50;99.90;;;14.10;100.00;98331.81;4992330;28;20537;-90
2022/10/25 08:27:12;;;;;;;4.00;1.60;;;13.50;99.90;;;14.15;100.00;98331.22;4989344;28;20459;-89
2022/10/25 08:29:42;;;;;;;7.97;1.80;;;13.60;99.90;;;14.19;100.00;98328.00;4991397;28;20584;-91
2022/10/25 08:32:11;;;;;;;6.83;1.40;;;13.70;99.90;;;14.23;100.00;98321.28;4994866;28;20515;-89
2022/10/25 08:34:41;;;;;;;4.60;1.70;;;13.70;99.90;;;14.27;100.00;98326.94;4994002;28;20464;-91
2022/10/25 08:37:12;;;;;;;12.30;2.33;;;13.80;99.90;;;14.28;100.00;98332.03;4993294;28;21032;-89
2022/10/25 08:39:40;;;;;;;10.43;2.23;;;13.70;99.90;;;14.29;100.00;98327.56;4993899;28;20444;-89
2022/10/25 08:42:27;;;;;;;6.53;2.07;;;13.80;99.90;;;14.31;100.00;98323.72;4993523;28;20451;-89
2022/10/25 08:45:04;;;;;;;5.43;1.80;;;13.80;99.90;;;14.32;100.00;98327.97;4991193;28;20478;-90
2022/10/25 08:47:39;;;;;;;4.83;1.50;;;13.80;99.90;;;14.36;100.00;98331.84;4989317;28;20877;-89
2022/10/25 08:50:19;;;;;;;3.60;1.37;;;13.80;99.90;;;14.38;100.00;98335.09;4990296;28;20458;-90
2022/10/25 08:52:53;;;;;;;6.73;1.47;;;14.00;99.90;;;14.43;100.00;98330.03;4988026;28;20531;-82
2022/10/25 08:55:32;;;;;;;4.60;1.83;;;14.00;99.90;;;14.43;100.00;98330.03;4988817;28;20954;-89
2022/10/25 08:58:05;;;;;;;6.40;2.10;;;13.90;99.90;;;14.44;100.00;98336.88;4989952;28;20546;-89
2022/10/25 09:00:45;;;;;;;11.53;2.33;;;13.90;99.90;;;14.50;100.00;98328.19;4987620;28;20465;-89
2022/10/25 09:03:16;;;;;;;15.30;1.73;;;13.90;99.90;;;14.49;100.00;98334.47;4989868;28;20456;-89
2022/10/25 09:06:02;;;;;;;5.17;1.50;;;13.90;99.90;;;14.54;100.00;98336.50;4990370;28;20472;-89
2022/10/25 09:08:49;;;;;;;9.37;1.67;;;13.90;99.90;;;14.56;100.00;98330.00;4987191;28;20538;-89
2022/10/25 09:11:40;;;;;;;3.53;1.20;;;14.00;99.90;;;14.58;100.00;98332.41;4986615;28;20518;-89
2022/10/25 09:14:23;;;;;;;3.53;1.83;;;14.00;99.90;;;14.65;100.00;98337.69;4990972;28;20837;-89
2022/10/25 09:16:54;;;;;;;5.30;1.40;;;14.10;99.90;;;14.65;100.00;98332.44;4989004;28;20492;-89
2022/10/25 09:19:34;;;;;;;6.23;1.60;;;14.10;99.90;;;14.69;100.00;98330.97;4989113;28;20455;-90
2022/10/25 09:22:11;;;;;;;6.00;1.40;;;14.20;99.90;;;14.66;100.00;98326.13;4989363;28;20452;-89
2022/10/25 09:24:54;;;;;;;10.67;1.70;;;14.10;99.90;;;14.72;100.00;98330.56;4988377;28;20498;-89
2022/10/25 09:27:35;;;;;;;5.37;1.60;;;14.20;99.90;;;14.76;100.00;98329.16;4991629;28;20444;-89
2022/10/25 09:30:08;;;;;;;3.80;1.40;;;14.20;99.90;;;14.74;100.00;98331.19;4986005;28;20576;-88
2022/10/25 09:32:42;;;;;;;16.37;2.03;;;14.20;99.90;;;14.74;100.00;98331.19;4986816;28;20567;-89
2022/10/25 09:35:17;;;;;;;4.30;1.67;;;14.10;99.90;;;14.75;100.00;98333.59;4989542;28;20523;-89
2022/10/25 09:37:51;;;;;;;5.10;1.70;;;14.20;99.90;;;14.81;100.00;98343.31;4987245;28;20930;-90
2022/10/25 09:40:24;;;;;;;7.93;1.50;;;14.30;99.90;;;14.82;100.00;98346.78;4985608;28;20958;-89
2022/10/25 09:42:58;;;;;;;7.80;1.87;;;14.30;99.90;;;14.79;100.00;98344.53;4987117;28;20543;-89
2022/10/25 09:45:34;;;;;;;6.20;1.90;;;14.20;99.90;;;14.80;100.00;98346.97;4985587;28;20487;-88
2022/10/25 09:48:20;;;;;;;4.73;1.60;;;14.20;99.90;;;14.79;100.00;98344.53;4988570;28;20495;-89
2022/10/25 09:50:57;;;;;;;3.97;1.50;;;14.20;99.90;;;14.80;100.00;98354.06;4989220;28;20492;-89
2022/10/25 09:53:27;;;;;;;4.80;1.30;;;14.10;99.90;;;14.75;100.00;98354.66;4990137;28;20480;-89
2022/10/25 09:55:59;;;;;;;4.90;1.50;;;14.10;99.90;;;14.81;100.00;98353.03;4987529;28;20927;-89
2022/10/25 09:58:30;;;;;;;10.40;1.17;;;14.20;99.90;;;14.83;100.00;98357.06;4987657;28;20519;-90
2022/10/25 10:01:06;;;;;;;3.90;1.20;;;14.30;99.90;;;14.76;100.00;98361.56;4988997;28;20803;-89
2022/10/25 10:03:36;;;;;;;3.13;1.50;;;14.20;99.90;;;14.73;100.00;98361.16;4987833;28;20463;-89
2022/10/25 10:06:16;;;;;;;3.80;1.70;;;14.10;99.90;;;14.74;100.00;98365.41;4987021;28;20495;-89
2022/10/25 10:08:56;;;;;;;5.70;2.30;;;14.10;99.90;;;14.76;100.00;98366.81;4988332;28;21024;-89
2022/10/25 10:11:26;;;;;;;5.83;1.70;;;14.20;99.90;;;14.80;100.00;98364.59;4988969;28;20455;-90
2022/10/25 10:14:03;;;;;;;8.03;1.80;;;14.30;99.90;;;14.85;100.00;98362.16;4988108;28;20491;-89
2022/10/25 10:16:45;;;;;;;5.73;2.43;;;14.30;99.90;;;14.86;100.00;98364.56;4988419;28;20495;-90
2022/10/25 10:19:17;;;;;;;4.07;1.67;;;14.40;99.90;;;14.86;100.00;98363.75;4987767;28;21154;-90
2022/10/25 10:21:49;;;;;;;5.77;2.10;;;14.40;99.90;;;14.85;100.00;98367.41;4987759;28;21018;-89
2022/10/25 10:24:23;;;;;;;2.60;1.80;;;14.30;99.90;;;14.87;100.00;98376.72;4989230;28;20461;-90
2022/10/25 10:26:56;;;;;;;3.40;1.97;;;14.30;99.90;;;14.91;100.00;98374.50;4989847;28;21008;-90
2022/10/25 10:29:28;;;;;;;8.20;2.20;;;14.30;99.90;;;14.92;100.00;98376.13;4989850;28;20474;-90
2022/10/25 10:32:01;;;;;;;5.70;2.10;;;14.40;99.90;;;14.85;100.00;98377.94;4986936;28;20491;-89
2022/10/25 10:34:32;;;;;;;5.60;1.97;;;14.30;99.90;;;14.84;100.00;98371.88;4988605;28;20845;-89